Tiempo atmosférico en la estación meteorológica de Candeleda, Ávila (350 m.)

Fecha
DESCASC
Temp. máxima en grados centígrados (hora)
DESCASC
Temp. mínima en grados centígrados (hora)
DESCASC
Temp. media en grados centígrados
DESCASC
Racha de viento máxima en m/sg (hora)
DESCASC
Velocidad máxima media en intervalos de 10 minutos(hora)
DESCASC
Precipitaciones diarias en mm
DESCASC
Precipitaciones de 00:00 a 06:00 en mm
DESCASC
Precipitaciones de 06:00 a 12:00 en mm
DESCASC
Precipitaciones de 12:00 a 18:00 en mm
DESCASC
Precipitaciones de 18:00 a 24:00 en mm
DESCASC
17-08-2017 38.5 (17:40) 19.3 (07:00) 28.9 7.22 (15:30) 3.33 (18:00) 0 0 0 0 0
16-08-2017 36.4 (19:00) 16.9 (08:20) 26.7 6.11 (18:50) 3.89 (18:50) 0 0 0 0 0
15-08-2017 35.5 (18:40) 20.4 (00:00) 27.9 8.89 (16:40) 5.83 (18:50) 0 0 0 0 0
14-08-2017 37.5 (17:40) 19.1 (05:00) 28.3 8.61 (17:10) 5 (10:10) 0 0 0 0 0
13-08-2017 36.9 (18:20) 16.1 (00:00) 26.5 7.22 (14:30) 3.89 (11:00) 0 0 0 0 0
12-08-2017 35.3 (18:30) 14.6 (00:00) 24.9 7.5 (13:50) 3.33 (10:10) 0 0 0 0 0
11-08-2017 32.7 (19:00) 13 (00:00) 22.9 6.11 (14:10) 3.61 (10:30) 0 0 0 0 0
10-08-2017 30.8 (18:40) 12.2 (00:00) 21.5 13.06 (00:20) 8.33 (00:30) 0 0 0 0 0
09-08-2017 31.9 (16:10) 15.4 (00:00) 23.6 11.67 (18:40) 7.78 (19:00) 0 0 0 0 0
08-08-2017 31.7 (18:40) 13.1 (00:00) 22.4 6.94 (00:10) 4.44 (21:40) 0 0 0 0 0
07-08-2017 36 (17:30) 17.9 (00:00) 26.9 10.83 (19:10) 6.11 (17:00) 0 0 0 0 0
06-08-2017 37.3 (18:20) 18.9 (00:00) 28.1 7.5 (14:40) 4.17 (18:00) 0 0 0 0 0
05-08-2017 39.8 (17:10) 21.3 (00:00) 30.5 10.83 (18:10) 6.67 (18:10) 0 0 0 0 0
04-08-2017 40 (18:40) 20.6 (00:00) 30.3 8.33 (18:00) 5 (18:50) 0 0 0 0 0
03-08-2017 37.5 (17:20) 16.1 (00:00) 26.8 8.33 (17:30) 5 (17:40) 0 0 0 0 0
02-08-2017 35.6 (17:30) 16.1 (00:00) 25.8 8.33 (15:40) 4.72 (15:30) 0 0 0 0 0
01-08-2017 32.8 (17:40) 15.2 (00:00) 24 7.5 (18:20) 4.72 (18:20) 0 0 0 0 0
31-07-2017 33.4 (16:00) 15.6 (00:00) 24.5 8.61 (15:40) 5 (18:30) 0 0 0 0 0
30-07-2017 37 (17:40) 18.5 (00:00) 27.8 10 (16:40) 5.83 (18:10) 0 0 0 0 0
29-07-2017 37.8 (17:50) 17.8 (00:00) 27.8 7.78 (18:00) 5 (18:00) 0 0 0 0 0
28-07-2017 38.5 (17:30) 18.5 (00:00) 28.5 8.89 (18:00) 6.11 (18:20) 0 0 0 0 0
27-07-2017 38.4 (17:20) 20.4 (00:00) 29.4 9.72 (16:30) 5.83 (16:20) 0 0 0 0 0
26-07-2017 36.2 (18:40) 18.9 (00:00) 27.6 6.67 (15:00) 3.61 (16:10) 0 0 0 0 0
25-07-2017 34.9 (18:10) 18.7 (00:00) 26.8 7.5 (21:00) 3.89 (19:30) 0 0 0 0 0
24-07-2017 35.8 (18:50) 18.5 (00:00) 27.1 9.44 (20:20) 6.11 (20:30) 0 0 0 0 0
23-07-2017 35.3 (17:10) 15.5 (00:00) 25.4 8.89 (14:20) 5 (16:30) 0 0 0 0 0
22-07-2017 33.1 (17:20) 15.8 (00:00) 24.4 7.78 (18:10) 4.72 (18:30) 0 0 0 0 0

Gráficas

Temp. máximas Temp. mínimas Temp. medias Precipitaciones Rachas de viento máximas Velocidades máximas media en intervalos de 10 minutos

Datos horarios

Fecha y hora oficial Temperatura (ºC) Velocidad del viento (km/h) Dirección del viento Racha (km/h) Dirección de racha Precipitación (mm) Presión (hPa) Tendencia (hPa) Humedad (%)
2017-08-20 23:00:00 28.5 5 Nordeste 12 Norte 0 -- -- 40
2017-08-20 22:00:00 31.8 8 Norte 14 Norte 0 -- -- 33
2017-08-20 21:00:00 34.4 8 Norte 12 Norte 0 -- -- 30
2017-08-20 20:00:00 38.6 4 Sudeste 9 Sur 0 -- -- 22
2017-08-20 19:00:00 38.7 5 Sudeste 16 Sur 0 -- -- 22
2017-08-20 18:00:00 38.9 8 Sur 18 Sudeste 0 -- -- 22
2017-08-20 17:00:00 38.3 9 Este 19 Sudeste 0 -- -- 23
2017-08-20 16:00:00 37.6 6 Este 20 Nordeste 0 -- -- 23
2017-08-20 15:00:00 36.5 10 Este 21 Este 0 -- -- 28
2017-08-20 14:00:00 35.5 12 Sudeste 19 Sudeste 0 -- -- 30
2017-08-20 13:00:00 33.3 8 Este 19 Este 0 -- -- 33
2017-08-20 12:00:00 32.3 7 Sur 20 Este 0 -- -- 27
2017-08-20 11:00:00 30.2 9 Nordeste 18 Nordeste 0 -- -- 31
2017-08-20 10:00:00 28.3 5 Nordeste 8 Este 0 -- -- 40
2017-08-20 09:00:00 24.3 0 Calma 3 Oeste 0 -- -- 47
2017-08-20 08:00:00 22.2 0 Calma 4 Noroeste 0 -- -- 52
2017-08-20 07:00:00 22.4 4 Noroeste 7 Sudoeste 0 -- -- 49
2017-08-20 06:00:00 23.2 4 Sudoeste 9 Sur 0 -- -- 47
2017-08-20 05:00:00 22.9 5 Nordeste 9 Este 0 -- -- 51
2017-08-20 04:00:00 25.2 9 Noroeste 13 Noroeste 0 -- -- 42
2017-08-20 03:00:00 25.2 3 Sur 11 Sudoeste 0 -- -- 43
2017-08-20 02:00:00 26.7 4 Norte 8 Norte 0 -- -- 38
2017-08-20 01:00:00 26.4 3 Noroeste 8 Norte 0 -- -- 46
2017-08-20 00:00:00 28.7 4 Este 12 Sur 0 -- -- 38
2017-08-19 23:00:00 31.3 6 Noroeste 13 Noroeste 0 -- -- 30
2017-08-19 22:00:00 31.4 8 Noroeste 13 Norte 0 -- -- 28
2017-08-19 21:00:00 34 8 Oeste 11 Noroeste 0 -- -- 26
2017-08-19 20:00:00 37.8 7 Sudoeste 14 Sudoeste 0 -- -- 21
2017-08-19 19:00:00 38.3 9 Sudoeste 19 Noroeste 0 -- -- 20
2017-08-19 18:00:00 38.8 8 Sudoeste 19 Sur 0 -- -- 20
2017-08-19 17:00:00 37 6 Nordeste 18 Sudeste 0 -- -- 22
2017-08-19 16:00:00 37.5 11 Sudeste 20 Sur 0 -- -- 21
2017-08-19 15:00:00 36.7 6 Sudoeste 21 Sur 0 -- -- 21
2017-08-19 14:00:00 35.4 6 Nordeste 18 Nordeste 0 -- -- 23
2017-08-19 13:00:00 34 6 Este 17 Nordeste 0 -- -- 25
2017-08-19 12:00:00 32.3 3 Este 10 Este 0 -- -- 28
2017-08-19 11:00:00 29.4 4 Nordeste 12 Este 0 -- -- 32
2017-08-19 10:00:00 26.9 6 Sudeste 9 Sudeste 0 -- -- 37
2017-08-19 09:00:00 21.8 5 Este 8 Este 0 -- -- 48
2017-08-19 08:00:00 19.6 3 Noroeste 8 Norte 0 -- -- 51
2017-08-19 07:00:00 20.5 4 Norte 12 Este 0 -- -- 48
2017-08-19 06:00:00 21.5 3 Este 13 Noroeste 0 -- -- 49
2017-08-19 05:00:00 23.7 5 Oeste 17 Este 0 -- -- 38
2017-08-19 04:00:00 23.4 4 Norte 9 Noroeste 0 -- -- 41
2017-08-19 03:00:00 24.9 4 Sur 8 Sudoeste 0 -- -- 37
2017-08-19 02:00:00 24.8 3 Sur 7 Nordeste 0 -- -- 36
2017-08-19 01:00:00 27.4 3 Nordeste 12 Norte 0 -- -- 30
2017-08-19 00:00:00 26 5 Nordeste 12 Nordeste 0 -- -- 37
2017-08-18 23:00:00 27.8 3 Este 11 Norte 0 -- -- 31
2017-08-18 22:00:00 29.1 5 Norte 16 Oeste 0 -- -- 30
2017-08-18 21:00:00 33.2 11 Sudoeste 25 Sudoeste 0 -- -- 23
2017-08-18 20:00:00 36.8 14 Sudoeste 28 Sur 0 -- -- 20
2017-08-18 19:00:00 38.1 17 Sudoeste 31 Sur 0 -- -- 18
2017-08-18 18:00:00 38.7 16 Sudoeste 30 Sudoeste 0 -- -- 18
2017-08-18 17:00:00 38.8 13 Sur 27 Oeste 0 -- -- 20
2017-08-18 16:00:00 38.5 16 Sudoeste 30 Sudoeste 0 -- -- 21
2017-08-18 15:00:00 37 16 Sudoeste 27 Sudoeste 0 -- -- 24
2017-08-18 14:00:00 36.2 11 Sudoeste 21 Sudoeste 0 -- -- 22
2017-08-18 13:00:00 34.3 5 Este 13 Este 0 -- -- 26
2017-08-18 12:00:00 32.3 3 Nordeste 14 Nordeste 0 -- -- 29
2017-08-18 11:00:00 30.1 5 Sudeste 12 Este 0 -- -- 33
2017-08-18 10:00:00 27.2 3 Sudeste 6 Sudeste 0 -- -- 36
2017-08-18 09:00:00 23 3 Este 6 Oeste 0 -- -- 57
2017-08-18 08:00:00 20.6 2 Este 10 Este 0 -- -- 55
2017-08-18 07:00:00 21.4 5 Nordeste 10 Este 0 -- -- 55
2017-08-18 06:00:00 21.9 0 Calma 5 Norte 0 -- -- 51
2017-08-18 05:00:00 23.1 4 Nordeste 8 Norte 0 -- -- 47
2017-08-18 04:00:00 24.1 3 Sudoeste 8 Sur 0 -- -- 44
2017-08-18 03:00:00 25.7 3 Nordeste 6 Norte 0 -- -- 40
2017-08-18 02:00:00 25.3 4 Nordeste 10 Sudeste 0 -- -- 41
2017-08-18 01:00:00 25.7 5 Nordeste 9 Nordeste 0 -- -- 39
2017-08-18 00:00:00 27.5 0 Calma 8 Noroeste 0 -- -- 35
2017-08-17 23:00:00 28.8 5 Noroeste 14 Noroeste 0 -- -- 33
2017-08-17 22:00:00 30.4 8 Norte 13 Norte 0 -- -- 32
2017-08-17 21:00:00 33.5 6 Noroeste 10 Oeste 0 -- -- 30
2017-08-17 20:00:00 37.3 8 Sudoeste 17 Sudoeste 0 -- -- 22
2017-08-17 19:00:00 38 8 Sudoeste 18 Sudoeste 0 -- -- 20
2017-08-17 18:00:00 38.1 12 Sudoeste 18 Sudoeste 0 -- -- 20
2017-08-17 17:00:00 38 10 Sudoeste 23 Sudoeste 0 -- -- 20
2017-08-17 16:00:00 37.1 7 Sudoeste 26 Oeste 0 -- -- 21
2017-08-17 15:00:00 36.3 7 Sudeste 18 Sudeste 0 -- -- 22
2017-08-17 14:00:00 34.9 7 Este 15 Sudoeste 0 -- -- 22
2017-08-17 13:00:00 33.4 7 Oeste 13 Sudoeste 0 -- -- 25
2017-08-17 12:00:00 31.9 5 Oeste 14 Oeste 0 -- -- 26
2017-08-17 11:00:00 29.6 4 Oeste 11 Sudoeste 0 -- -- 28
2017-08-17 10:00:00 27.3 5 Sudoeste 8 Sudoeste 0 -- -- 34
2017-08-17 09:00:00 21.3 0 Calma 3 Este 0 -- -- 53
2017-08-17 08:00:00 20.3 0 Calma 8 Nordeste 0 -- -- 49
2017-08-17 07:00:00 19.3 4 Nordeste 12 Noroeste 0 -- -- 52
2017-08-17 06:00:00 22.4 10 Noroeste 13 Noroeste 0 -- -- 41
2017-08-17 05:00:00 20.5 3 Nordeste 10 Este 0 -- -- 48
2017-08-17 04:00:00 22.3 3 Noroeste 8 Oeste 0 -- -- 41
2017-08-17 03:00:00 21.8 5 Este 9 Nordeste 0 -- -- 49
2017-08-17 02:00:00 24 3 Norte 6 Oeste 0 -- -- 37
2017-08-17 01:00:00 24.2 3 Sudoeste 7 Noroeste 0 -- -- 40
2017-08-17 00:00:00 26.3 5 Norte 10 Norte 0 -- -- 32
2017-08-16 23:00:00 26.6 4 Norte 9 Norte 0 -- -- 34
2017-08-16 22:00:00 27.6 3 Este 8 Norte 0 -- -- 34
2017-08-16 21:00:00 31.8 4 Noroeste 17 Sudoeste 0 -- -- 28
2017-08-16 20:00:00 35.4 9 Sudoeste 22 Sudoeste 0 -- -- 21
2017-08-16 19:00:00 36.4 11 Sudoeste 22 Oeste 0 -- -- 21
2017-08-16 18:00:00 35.6 13 Sur 22 Sur 0 -- -- 23
2017-08-16 17:00:00 35.2 9 Sudoeste 20 Sudoeste 0 -- -- 22
2017-08-16 16:00:00 34.7 10 Sudoeste 22 Sudoeste 0 -- -- 20
2017-08-16 15:00:00 33.2 8 Oeste 20 Sudoeste 0 -- -- 24
2017-08-16 14:00:00 32 10 Sudoeste 17 Sur 0 -- -- 27
2017-08-16 13:00:00 30.8 8 Sur 15 Sur 0 -- -- 30
2017-08-16 12:00:00 28.8 8 Sudoeste 14 Oeste 0 -- -- 34
2017-08-16 11:00:00 26 7 Sudoeste 12 Sudoeste 0 -- -- 42
2017-08-16 10:00:00 24.1 4 Sudeste 6 Sur 0 -- -- 44
2017-08-16 09:00:00 19.7 0 Calma 6 Noroeste 0 -- -- 58
2017-08-16 08:00:00 17.2 0 Calma 5 Norte 0 -- -- 57
2017-08-16 07:00:00 18.3 3 Norte 5 Norte 0 -- -- 46
2017-08-16 06:00:00 17.8 2 Nordeste 4 Norte 0 -- -- 51
2017-08-16 05:00:00 18.8 0 Calma 4 Norte 0 -- -- 48
2017-08-16 04:00:00 20.4 0 Calma 7 Norte 0 -- -- 40
2017-08-16 03:00:00 20.6 2 Norte 9 Nordeste 0 -- -- 40
2017-08-16 02:00:00 21.2 3 Nordeste 10 Este 0 -- -- 42
2017-08-16 01:00:00 22.9 9 Este 14 Este 0 -- -- 38
2017-08-16 00:00:00 22.3 6 Este 12 Oeste 0 -- -- 37
2017-08-15 23:00:00 25.1 3 Sudeste 8 Oeste 0 -- -- 31
2017-08-15 22:00:00 28.5 4 Noroeste 12 Noroeste 0 -- -- 26
2017-08-15 21:00:00 31.1 7 Noroeste 19 Sudoeste 0 -- -- 23
2017-08-15 20:00:00 34 14 Oeste 28 Oeste 0 -- -- 22
2017-08-15 19:00:00 35.4 19 Oeste 31 Oeste 0 -- -- 20
2017-08-15 18:00:00 35.2 9 Sudoeste 22 Sudoeste 0 -- -- 22
2017-08-15 17:00:00 33.8 16 Sudoeste 32 Sudoeste 0 -- -- 22
2017-08-15 16:00:00 35 19 Sudoeste 30 Sur 0 -- -- 21
2017-08-15 15:00:00 33.5 15 Sudoeste 24 Sudoeste 0 -- -- 24
2017-08-15 14:00:00 33.3 12 Sudoeste 22 Sudoeste 0 -- -- 26
2017-08-15 13:00:00 32.6 5 Sur 15 Sudeste 0 -- -- 32
2017-08-15 12:00:00 30.6 4 Este 11 Sur 0 -- -- 34
2017-08-15 11:00:00 28.7 5 Sudoeste 9 Oeste 0 -- -- 37
2017-08-15 10:00:00 26.2 2 Sudeste 5 Sur 0 -- -- 40
2017-08-15 09:00:00 21.6 0 Calma 9 Este 0 -- -- 55
2017-08-15 08:00:00 21.1 0 Calma 9 Norte 0 -- -- 54
2017-08-15 07:00:00 22.9 5 Noroeste 8 Norte 0 -- -- 44
2017-08-15 06:00:00 20.5 3 Este 6 Nordeste 0 -- -- 60
2017-08-15 05:00:00 21.5 5 Nordeste 10 Nordeste 0 -- -- 56
2017-08-15 04:00:00 22.8 4 Nordeste 11 Norte 0 -- -- 49
2017-08-15 03:00:00 22.3 0 Calma 10 Este 0 -- -- 52
2017-08-15 02:00:00 23.1 5 Nordeste 8 Nordeste 0 -- -- 48
2017-08-15 01:00:00 25.4 5 Oeste 17 Sur 0 -- -- 41
2017-08-15 00:00:00 26.5 2 Este 7 Oeste 0 -- -- 40
2017-08-14 23:00:00 28.6 6 Norte 12 Noroeste 0 -- -- 34
2017-08-14 22:00:00 29.4 6 Norte 12 Norte 0 -- -- 33
2017-08-14 21:00:00 32.7 6 Norte 10 Norte 0 -- -- 31
2017-08-14 20:00:00 36.4 4 Oeste 16 Sudoeste 0 -- -- 23
2017-08-14 19:00:00 36.6 11 Sudoeste 19 Sudoeste 0 -- -- 23
2017-08-14 18:00:00 37 7 Oeste 31 Oeste 0 -- -- 23
2017-08-14 17:00:00 35.7 8 Nordeste 20 Sudeste 0 -- -- 26
2017-08-14 16:00:00 35.6 10 Sur 22 Sur 0 -- -- 27
2017-08-14 15:00:00 34.8 14 Sur 24 Sur 0 -- -- 30
2017-08-14 14:00:00 33 10 Sudeste 22 Nordeste 0 -- -- 30
2017-08-14 13:00:00 31.7 10 Este 24 Este 0 -- -- 35
2017-08-14 12:00:00 30.2 13 Este 27 Este 0 -- -- 39
2017-08-14 11:00:00 28 15 Este 28 Este 0 -- -- 44
2017-08-14 10:00:00 26.3 15 Este 24 Nordeste 0 -- -- 48
2017-08-14 09:00:00 22.9 2 Norte 9 Norte 0 -- -- 49
2017-08-14 08:00:00 21.2 8 Noroeste 11 Noroeste 0 -- -- 45
2017-08-14 07:00:00 19.8 5 Noroeste 15 Nordeste 0 -- -- 45
2017-08-14 06:00:00 19.4 5 Este 10 Sudeste 0 -- -- 46
2017-08-14 05:00:00 19.1 4 Nordeste 6 Sur 0 -- -- 51
2017-08-14 04:00:00 20.8 3 Norte 12 Este 0 -- -- 45
2017-08-14 03:00:00 22.3 5 Noroeste 10 Nordeste 0 -- -- 35
2017-08-14 02:00:00 20.8 7 Sudeste 10 Sudeste 0 -- -- 49
2017-08-14 01:00:00 22.5 2 Nordeste 9 Este 0 -- -- 43
2017-08-14 00:00:00 25.5 0 Calma 4 Nordeste 0 -- -- 29
2017-08-13 23:00:00 26.5 2 Nordeste 9 Noroeste 0 -- -- 27
2017-08-13 22:00:00 28.2 6 Noroeste 13 Noroeste 0 -- -- 25
2017-08-13 21:00:00 31.5 8 Norte 10 Norte 0 -- -- 24
2017-08-13 20:00:00 36 5 Sudoeste 14 Oeste 0 -- -- 16
2017-08-13 19:00:00 36.7 9 Sudoeste 15 Oeste 0 -- -- 15
2017-08-13 18:00:00 36.8 9 Sudoeste 21 Oeste 0 -- -- 16
2017-08-13 17:00:00 36.7 13 Oeste 26 Oeste 0 -- -- 15
2017-08-13 16:00:00 35.9 8 Sur 21 Sur 0 -- -- 18
2017-08-13 15:00:00 35.1 10 Sudoeste 26 Sudeste 0 -- -- 21
2017-08-13 14:00:00 33.4 8 Este 16 Sur 0 -- -- 24
2017-08-13 13:00:00 31.9 5 Sudeste 17 Este 0 -- -- 27
2017-08-13 12:00:00 29.9 9 Este 23 Este 0 -- -- 33
2017-08-13 11:00:00 28.2 14 Este 24 Este 0 -- -- 32
2017-08-13 10:00:00 25 2 Nordeste 5 Norte 0 -- -- 33
2017-08-13 09:00:00 20.9 3 Noroeste 5 Oeste 0 -- -- 40
2017-08-13 08:00:00 17.2 0 Calma 9 Oeste 0 -- -- 49
2017-08-13 07:00:00 16.9 4 Noroeste 13 Sudeste 0 -- -- 50
2017-08-13 06:00:00 18.2 6 Norte 12 Nordeste 0 -- -- 46
2017-08-13 05:00:00 18.7 5 Este 10 Este 0 -- -- 46
2017-08-13 04:00:00 19.5 3 Nordeste 5 Nordeste 0 -- -- 47
2017-08-13 03:00:00 21.1 5 Este 8 Este 0 -- -- 47
2017-08-13 02:00:00 21.5 0 Calma 5 Este 0 -- -- 43
2017-08-13 01:00:00 22 4 Este 6 Este 0 -- -- 42
2017-08-13 00:00:00 23.2 4 Sudeste 9 Este 0 -- -- 39
2017-08-12 23:00:00 25.1 2 Sudeste 9 Norte 0 -- -- 33
2017-08-12 22:00:00 27 6 Noroeste 14 Norte 0 -- -- 30
2017-08-12 21:00:00 30.3 8 Norte 12 Norte 0 -- -- 26
2017-08-12 20:00:00 34.5 8 Oeste 14 Sudoeste 0 -- -- 19
2017-08-12 19:00:00 34.8 5 Sur 18 Sudoeste 0 -- -- 18
2017-08-12 18:00:00 34.5 6 Sudeste 18 Este 0 -- -- 19
2017-08-12 17:00:00 34.5 9 Sudeste 24 Este 0 -- -- 18
2017-08-12 16:00:00 33.8 7 Sur 19 Sudeste 0 -- -- 18
2017-08-12 15:00:00 32.9 9 Sudeste 19 Sur 0 -- -- 20
2017-08-12 14:00:00 32.1 10 Sur 27 Este 0 -- -- 23
2017-08-12 13:00:00 30.1 9 Nordeste 22 Este 0 -- -- 25
2017-08-12 12:00:00 28.2 7 Nordeste 18 Este 0 -- -- 33
2017-08-12 11:00:00 26.2 11 Nordeste 21 Nordeste 0 -- -- 36
2017-08-12 10:00:00 23.5 9 Nordeste 20 Nordeste 0 -- -- 33
2017-08-12 09:00:00 19 2 Noroeste 5 Nordeste 0 -- -- 37
2017-08-12 08:00:00 15.3 2 Este 8 Sudeste 0 -- -- 41
2017-08-12 07:00:00 15.6 0 Calma 7 Sudeste 0 -- -- 41
2017-08-12 06:00:00 15.9 2 Nordeste 10 Noroeste 0 -- -- 45
2017-08-12 05:00:00 17.8 6 Norte 10 Noroeste 0 -- -- 33
2017-08-12 04:00:00 18.6 4 Oeste 10 Noroeste 0 -- -- 37
2017-08-12 03:00:00 20 4 Este 14 Sudeste 0 -- -- 34
2017-08-12 02:00:00 20.5 5 Nordeste 10 Norte 0 -- -- 33
2017-08-12 01:00:00 20.4 3 Nordeste 9 Norte 0 -- -- 34
2017-08-12 00:00:00 22.2 6 Norte 9 Este 0 -- -- 29
2017-08-11 23:00:00 22.5 2 Norte 6 Norte 0 -- -- 31
2017-08-11 22:00:00 24.7 0 Calma 11 Norte 0 -- -- 32
2017-08-11 21:00:00 29.5 5 Noroeste 10 Norte 0 -- -- 27
2017-08-11 20:00:00 32.5 3 Sudoeste 13 Sur 0 -- -- 19
2017-08-11 19:00:00 32.7 6 Sudoeste 15 Oeste 0 -- -- 19
2017-08-11 18:00:00 31.9 5 Este 20 Sudoeste 0 -- -- 20
2017-08-11 17:00:00 31.8 6 Nordeste 15 Sur 0 -- -- 23
2017-08-11 16:00:00 30.7 6 Sudoeste 17 Sudeste 0 -- -- 21
2017-08-11 15:00:00 29.7 10 Sudeste 22 Sudeste 0 -- -- 23
2017-08-11 14:00:00 28 8 Este 19 Sur 0 -- -- 26
2017-08-11 13:00:00 27.1 3 Nordeste 11 Nordeste 0 -- -- 28
2017-08-11 12:00:00 25 5 Este 15 Este 0 -- -- 28
2017-08-11 11:00:00 23.1 9 Este 21 Este 0 -- -- 34
2017-08-11 10:00:00 20.7 9 Nordeste 17 Nordeste 0 -- -- 43
2017-08-11 09:00:00 17.7 8 Este 13 Este 0 -- -- 46
2017-08-11 08:00:00 15.1 6 Norte 10 Norte 0 -- -- 48
2017-08-11 07:00:00 13.1 4 Nordeste 7 Sudeste 0 -- -- 59
2017-08-11 06:00:00 16.2 4 Norte 10 Norte 0 -- -- 47
2017-08-11 05:00:00 14.8 4 Este 10 Noroeste 0 -- -- 57
2017-08-11 04:00:00 17.8 6 Noroeste 10 Noroeste 0 -- -- 40
2017-08-11 03:00:00 17.5 2 Sudeste 12 Este 0 -- -- 42
2017-08-11 02:00:00 20.3 8 Noroeste 10 Noroeste 0 -- -- 34
2017-08-11 01:00:00 19.2 2 Nordeste 8 Este 0 -- -- 40
2017-08-11 00:00:00 19.7 3 Oeste 5 Noroeste 0 -- -- 38
2017-08-10 23:00:00 20.6 3 Este 11 Norte 0 -- -- 37
2017-08-10 22:00:00 23.1 8 Norte 12 Norte 0 -- -- 34
2017-08-10 21:00:00 28.2 4 Oeste 13 Oeste 0 -- -- 25
2017-08-10 20:00:00 30 8 Oeste 15 Oeste 0 -- -- 20
2017-08-10 19:00:00 30.7 5 Sudoeste 13 Noroeste 0 -- -- 18
2017-08-10 18:00:00 30.2 6 Sudeste 16 Norte 0 -- -- 19
2017-08-10 17:00:00 29.1 8 Sudeste 21 Sur 0 -- -- 19
2017-08-10 16:00:00 28.6 8 Sudeste 20 Sur 0 -- -- 19
2017-08-10 15:00:00 27.5 6 Este 23 Este 0 -- -- 22
2017-08-10 14:00:00 26.3 8 Sudeste 22 Este 0 -- -- 23
2017-08-10 13:00:00 25 7 Nordeste 22 Este 0 -- -- 24
2017-08-10 12:00:00 22.9 6 Sudeste 13 Sudeste 0 -- -- 27
2017-08-10 11:00:00 20.7 4 Norte 14 Nordeste 0 -- -- 32
2017-08-10 10:00:00 17.7 4 Noroeste 9 Oeste 0 -- -- 42
2017-08-10 09:00:00 15.3 2 Sudoeste 6 Norte 0 -- -- 50
2017-08-10 08:00:00 12.3 4 Oeste 8 Norte 0 -- -- 57
2017-08-10 07:00:00 13.9 3 Nordeste 16 Nordeste 0 -- -- 51
2017-08-10 06:00:00 14.5 7 Nordeste 15 Nordeste 0 -- -- 49
2017-08-10 05:00:00 15.9 5 Nordeste 18 Norte 0 -- -- 46
2017-08-10 04:00:00 16.7 8 Nordeste 19 Este 0 -- -- 45
2017-08-10 03:00:00 18.3 12 Este 31 Este 0 -- -- 41
2017-08-10 02:00:00 19.1 4 Noroeste 22 Nordeste 0 -- -- 37
2017-08-10 01:00:00 21.3 17 Este 47 Este 0 -- -- 34
2017-08-10 00:00:00 21.2 2 Norte 17 Sudoeste 0 -- -- 33
2017-08-09 23:00:00 23.5 8 Sudeste 20 Sur 0 -- -- 28
2017-08-09 22:00:00 25.9 11 Sudeste 28 Oeste 0 -- -- 24
2017-08-09 21:00:00 27 17 Noroeste 32 Oeste 0 -- -- 23
2017-08-09 20:00:00 29.7 11 Noroeste 39 Noroeste 0 -- -- 23
2017-08-09 19:00:00 30.2 28 Noroeste 42 Noroeste 0 -- -- 23
2017-08-09 18:00:00 30.9 23 Noroeste 41 Oeste 0 -- -- 23
2017-08-09 17:00:00 31.6 20 Oeste 33 Oeste 0 -- -- 22
2017-08-09 16:00:00 31.3 5 Sudeste 23 Oeste 0 -- -- 25
2017-08-09 15:00:00 30.3 5 Sur 24 Sudoeste 0 -- -- 25
2017-08-09 14:00:00 28.7 8 Oeste 25 Oeste 0 -- -- 25
2017-08-09 13:00:00 27.7 10 Sudoeste 20 Sudoeste 0 -- -- 26
2017-08-09 12:00:00 25.7 11 Sudoeste 22 Sudoeste 0 -- -- 29
2017-08-09 11:00:00 24.4 8 Sur 13 Sudoeste 0 -- -- 29
2017-08-09 10:00:00 21.9 3 Sudoeste 10 Sudoeste 0 -- -- 33
2017-08-09 09:00:00 18.1 0 Calma 9 Este 0 -- -- 44
2017-08-09 08:00:00 16 0 Calma 5 Norte 0 -- -- 54
2017-08-09 07:00:00 15.9 3 Noroeste 9 Oeste 0 -- -- 51
2017-08-09 06:00:00 15.7 4 Sudoeste 10 Norte 0 -- -- 51
2017-08-09 05:00:00 16.2 4 Sudoeste 8 Oeste 0 -- -- 49
2017-08-09 04:00:00 17 2 Este 9 Norte 0 -- -- 48
2017-08-09 03:00:00 18.7 3 Norte 7 Norte 0 -- -- 45
2017-08-09 02:00:00 19.7 3 Norte 6 Oeste 0 -- -- 42
2017-08-09 01:00:00 19.6 4 Oeste 9 Este 0 -- -- 40
2017-08-09 00:00:00 22.3 3 Noroeste 12 Noroeste 0 -- -- 37
2017-08-08 23:00:00 22.4 4 Nordeste 15 Noroeste 0 -- -- 37
2017-08-08 22:00:00 26.4 10 Noroeste 23 Noroeste 0 -- -- 25
2017-08-08 21:00:00 28.4 11 Oeste 22 Oeste 0 -- -- 21
2017-08-08 20:00:00 31 9 Sudoeste 22 Sudoeste 0 -- -- 24
2017-08-08 19:00:00 31.5 10 Sudoeste 23 Oeste 0 -- -- 23
2017-08-08 18:00:00 31.3 8 Sur 24 Oeste 0 -- -- 24
2017-08-08 17:00:00 31.1 6 Este 24 Sudoeste 0 -- -- 25
2017-08-08 16:00:00 30.6 11 Sudoeste 21 Sudoeste 0 -- -- 26
2017-08-08 15:00:00 29.3 8 Sudeste 21 Sur 0 -- -- 26
2017-08-08 14:00:00 28.2 6 Este 19 Sudeste 0 -- -- 29
2017-08-08 13:00:00 27.3 9 Sudeste 18 Sur 0 -- -- 33
2017-08-08 12:00:00 25.6 6 Este 17 Sudeste 0 -- -- 37
2017-08-08 11:00:00 23.1 6 Este 15 Este 0 -- -- 44
2017-08-08 10:00:00 20.5 6 Este 13 Este 0 -- -- 52
2017-08-08 09:00:00 17 5 Nordeste 8 Nordeste 0 -- -- 59
2017-08-08 08:00:00 14.4 2 Norte 6 Este 0 -- -- 66
2017-08-08 07:00:00 13.4 5 Este 6 Este 0 -- -- 61
2017-08-08 06:00:00 15.5 2 Nordeste 6 Nordeste 0 -- -- 57
2017-08-08 05:00:00 16 2 Nordeste 8 Nordeste 0 -- -- 47
2017-08-08 04:00:00 16.1 4 Nordeste 8 Nordeste 0 -- -- 45
2017-08-08 03:00:00 17.3 3 Nordeste 9 Este 0 -- -- 38
2017-08-08 02:00:00 18.2 8 Este 12 Este 0 -- -- 39
2017-08-08 01:00:00 21.9 4 Sudoeste 25 Sudoeste 0 -- -- 23
2017-08-08 00:00:00 24.1 12 Sudoeste 24 Sudoeste 0 -- -- 17
2017-08-07 23:00:00 26.3 13 Sudoeste 22 Sudoeste 0 -- -- 15
2017-08-07 22:00:00 27.9 10 Sudoeste 20 Sudoeste 0 -- -- 22
2017-08-07 21:00:00 29.6 8 Sudoeste 21 Oeste 0 -- -- 19
2017-08-07 20:00:00 32 14 Oeste 39 Oeste 0 -- -- 15
2017-08-07 19:00:00 35.6 18 Sudoeste 37 Sudoeste 0 -- -- 13
2017-08-07 18:00:00 35.8 18 Sudoeste 34 Sudoeste 0 -- -- 13
2017-08-07 17:00:00 35.9 22 Sudoeste 38 Sur 0 -- -- 17
2017-08-07 16:00:00 35.2 21 Sudoeste 34 Sudoeste 0 -- -- 17
2017-08-07 15:00:00 34.7 15 Sudoeste 29 Sudoeste 0 -- -- 14
2017-08-07 14:00:00 32.7 9 Sudoeste 19 Sudoeste 0 -- -- 19
2017-08-07 13:00:00 31.4 6 Sudoeste 17 Sudoeste 0 -- -- 22
2017-08-07 12:00:00 29.6 10 Sudoeste 21 Sur 0 -- -- 19
2017-08-07 11:00:00 28.1 13 Sur 21 Sudoeste 0 -- -- 24
2017-08-07 10:00:00 24.7 3 Sudoeste 6 Sudoeste 0 -- -- 42
2017-08-07 09:00:00 20.1 0 Calma 8 Sur 0 -- -- 58
2017-08-07 08:00:00 18.2 3 Norte 6 Norte 0 -- -- 62
2017-08-07 07:00:00 18.4 4 Norte 6 Norte 0 -- -- 56
2017-08-07 06:00:00 19.6 2 Norte 9 Nordeste 0 -- -- 50
2017-08-07 05:00:00 19.5 4 Este 7 Norte 0 -- -- 53
2017-08-07 04:00:00 20 3 Noroeste 5 Nordeste 0 -- -- 47
2017-08-07 03:00:00 21.1 5 Sudeste 16 Norte 0 -- -- 47
2017-08-07 02:00:00 20.2 6 Oeste 10 Oeste 0 -- -- 47
2017-08-07 01:00:00 23 4 Este 7 Norte 0 -- -- 41
2017-08-07 00:00:00 25.5 3 Norte 12 Norte 0 -- -- 33
2017-08-06 23:00:00 27.5 6 Norte 11 Norte 0 -- -- 32
2017-08-06 22:00:00 30 7 Noroeste 17 Oeste 0 -- -- 31
2017-08-06 21:00:00 33.1 11 Oeste 22 Sudoeste 0 -- -- 28
2017-08-06 20:00:00 36 11 Sudoeste 21 Sudoeste 0 -- -- 23
2017-08-06 19:00:00 37 11 Sudoeste 22 Sur 0 -- -- 15
2017-08-06 18:00:00 36.9 15 Sur 26 Sudoeste 0 -- -- 13
2017-08-06 17:00:00 36.7 13 Sur 26 Sudoeste 0 -- -- 16
2017-08-06 16:00:00 36.2 11 Sur 22 Sudoeste 0 -- -- 22
2017-08-06 15:00:00 34.7 10 Sudoeste 27 Sudoeste 0 -- -- 27
2017-08-06 14:00:00 33.9 8 Sudoeste 18 Sur 0 -- -- 31
2017-08-06 13:00:00 32.6 6 Sudeste 15 Este 0 -- -- 33
2017-08-06 12:00:00 30.7 7 Este 13 Sudoeste 0 -- -- 38
2017-08-06 11:00:00 28.2 6 Oeste 9 Oeste 0 -- -- 41
2017-08-06 10:00:00 24.7 2 Norte 12 Este 0 -- -- 46
2017-08-06 09:00:00 22 3 Sudeste 4 Sudeste 0 -- -- 53
2017-08-06 08:00:00 18.9 2 Este 4 Este 0 -- -- 65
2017-08-06 07:00:00 19.9 2 Noroeste 8 Este 0 -- -- 59
2017-08-06 06:00:00 20.7 4 Nordeste 6 Norte 0 -- -- 58
2017-08-06 05:00:00 22.7 2 Norte 6 Este 0 -- -- 50
2017-08-06 04:00:00 21.4 3 Nordeste 6 Noroeste 0 -- -- 52
2017-08-06 03:00:00 24.9 3 Norte 9 Noroeste 0 -- -- 39
2017-08-06 02:00:00 24.2 3 Nordeste 12 Sudeste 0 -- -- 41
2017-08-06 01:00:00 26.9 2 Noroeste 11 Oeste 0 -- -- 31
2017-08-06 00:00:00 31.4 10 Noroeste 21 Oeste 0 -- -- 23
2017-08-05 23:00:00 28.4 11 Oeste 20 Oeste 0 -- -- 32
2017-08-05 22:00:00 31.1 6 Noroeste 12 Oeste 0 -- -- 29
2017-08-05 21:00:00 35.3 10 Oeste 27 Oeste 0 -- -- 23
2017-08-05 20:00:00 37.6 17 Oeste 32 Oeste 0 -- -- 20
2017-08-05 19:00:00 38.7 21 Sudoeste 39 Sudoeste 0 -- -- 19
2017-08-05 18:00:00 39.3 20 Oeste 38 Sudoeste 0 -- -- 18
2017-08-05 17:00:00 39.7 21 Sudoeste 36 Sudoeste 0 -- -- 20
2017-08-05 16:00:00 39.6 17 Sudoeste 30 Sur 0 -- -- 20
2017-08-05 15:00:00 38.9 13 Sur 25 Sudoeste 0 -- -- 19
2017-08-05 14:00:00 37.9 8 Sur 22 Oeste 0 -- -- 22
2017-08-05 13:00:00 36.6 6 Sudoeste 17 Sudoeste 0 -- -- 24
2017-08-05 12:00:00 35.8 4 Sudeste 19 Sudeste 0 -- -- 26
2017-08-05 11:00:00 33.2 3 Noroeste 13 Oeste 0 -- -- 30
2017-08-05 10:00:00 29.7 6 Sudoeste 8 Sudoeste 0 -- -- 35
2017-08-05 09:00:00 25.8 4 Noroeste 8 Oeste 0 -- -- 43
2017-08-05 08:00:00 21.6 2 Noroeste 8 Sudeste 0 -- -- 54
2017-08-05 07:00:00 22 4 Nordeste 12 Norte 0 -- -- 52
2017-08-05 06:00:00 23.2 5 Noroeste 8 Norte 0 -- -- 46
2017-08-05 05:00:00 24 5 Norte 7 Norte 0 -- -- 47
2017-08-05 04:00:00 26.1 5 Noroeste 9 Oeste 0 -- -- 43
2017-08-05 03:00:00 25.4 3 Sur 8 Oeste 0 -- -- 46
2017-08-05 02:00:00 27.3 5 Nordeste 9 Nordeste 0 -- -- 40
2017-08-05 01:00:00 27.9 3 Norte 9 Oeste 0 -- -- 42
2017-08-05 00:00:00 29.5 3 Norte 9 Norte 0 -- -- 41
2017-08-04 23:00:00 30.3 5 Nordeste 20 Oeste 0 -- -- 39
2017-08-04 22:00:00 31.7 8 Oeste 12 Oeste 0 -- -- 36
2017-08-04 21:00:00 36.7 6 Noroeste 20 Sudoeste 0 -- -- 26
2017-08-04 20:00:00 39.3 11 Sudoeste 28 Sudoeste 0 -- -- 22
2017-08-04 19:00:00 39.7 17 Sudoeste 28 Sudoeste 0 -- -- 22
2017-08-04 18:00:00 39.7 17 Sudoeste 30 Sur 0 -- -- 24
2017-08-04 17:00:00 39.4 13 Sudoeste 24 Sudoeste 0 -- -- 24
2017-08-04 16:00:00 38.9 8 Oeste 24 Sur 0 -- -- 25
2017-08-04 15:00:00 38.5 6 Sudoeste 18 Sur 0 -- -- 24
2017-08-04 14:00:00 36.6 5 Norte 14 Norte 0 -- -- 27
2017-08-04 13:00:00 35.3 7 Sudoeste 15 Sudeste 0 -- -- 30
2017-08-04 12:00:00 33.5 6 Este 14 Este 0 -- -- 33
2017-08-04 11:00:00 31.8 5 Nordeste 12 Sudeste 0 -- -- 37
2017-08-04 10:00:00 28.1 2 Norte 7 Oeste 0 -- -- 46
2017-08-04 09:00:00 23.9 0 Calma 6 Nordeste 0 -- -- 55
2017-08-04 08:00:00 21.4 2 Este 4 Este 0 -- -- 62
2017-08-04 07:00:00 20.6 2 Este 7 Este 0 -- -- 66
2017-08-04 06:00:00 22 2 Nordeste 6 Norte 0 -- -- 63
2017-08-04 05:00:00 22.9 3 Norte 5 Norte 0 -- -- 55
2017-08-04 04:00:00 23.2 0 Calma 6 Este 0 -- -- 56
2017-08-04 03:00:00 22.9 4 Nordeste 8 Nordeste 0 -- -- 56
2017-08-04 02:00:00 25.7 3 Norte 8 Norte 0 -- -- 46
2017-08-04 01:00:00 26.8 3 Nordeste 6 Noroeste 0 -- -- 44
2017-08-04 00:00:00 27.2 3 Sudeste 8 Este 0 -- -- 44
2017-08-03 23:00:00 29.7 2 Sur 15 Noroeste 0 -- -- 37
2017-08-03 22:00:00 29.9 4 Nordeste 10 Noroeste 0 -- -- 38
2017-08-03 21:00:00 34.7 6 Oeste 16 Sudoeste 0 -- -- 29
2017-08-03 20:00:00 36.6 11 Sudoeste 24 Sudoeste 0 -- -- 23
2017-08-03 19:00:00 37.1 15 Sudoeste 28 Sudoeste 0 -- -- 19
2017-08-03 18:00:00 37.3 16 Sudoeste 30 Sur 0 -- -- 19
2017-08-03 17:00:00 37.1 15 Sur 25 Sur 0 -- -- 20
2017-08-03 16:00:00 36.4 9 Sudoeste 21 Oeste 0 -- -- 20
2017-08-03 15:00:00 35.2 8 Sudoeste 21 Noroeste 0 -- -- 20
2017-08-03 14:00:00 33.6 9 Sudoeste 22 Sudoeste 0 -- -- 22
2017-08-03 13:00:00 31.9 9 Sudoeste 16 Sur 0 -- -- 25
2017-08-03 12:00:00 29.8 5 Oeste 12 Sur 0 -- -- 28
2017-08-03 11:00:00 27.4 6 Sudeste 12 Este 0 -- -- 31
2017-08-03 10:00:00 24.9 4 Sudeste 8 Este 0 -- -- 35
2017-08-03 09:00:00 19.6 4 Nordeste 6 Este 0 -- -- 58
2017-08-03 08:00:00 16.1 3 Este 6 Nordeste 0 -- -- 62
2017-08-03 07:00:00 17.5 5 Nordeste 6 Nordeste 0 -- -- 51
2017-08-03 06:00:00 17.5 2 Nordeste 6 Nordeste 0 -- -- 55
2017-08-03 05:00:00 17.9 3 Norte 8 Este 0 -- -- 49
2017-08-03 04:00:00 19.1 6 Este 8 Este 0 -- -- 51
2017-08-03 03:00:00 21 3 Nordeste 6 Nordeste 0 -- -- 41
2017-08-03 02:00:00 22.5 0 Calma 7 Norte 0 -- -- 35
2017-08-03 01:00:00 22.9 3 Sudeste 5 Sudeste 0 -- -- 39
2017-08-03 00:00:00 24.3 2 Nordeste 5 Este 0 -- -- 34
2017-08-02 23:00:00 25.7 3 Nordeste 10 Norte 0 -- -- 30
2017-08-02 22:00:00 28.1 8 Norte 11 Norte 0 -- -- 28
2017-08-02 21:00:00 32.9 6 Oeste 18 Sudoeste 0 -- -- 24
2017-08-02 20:00:00 34.7 11 Sudoeste 22 Sudoeste 0 -- -- 19
2017-08-02 19:00:00 35.5 12 Sudoeste 22 Sudoeste 0 -- -- 17
2017-08-02 18:00:00 35.4 10 Sudoeste 21 Sudoeste 0 -- -- 18
2017-08-02 17:00:00 35.4 9 Sudoeste 22 Sudoeste 0 -- -- 18
2017-08-02 16:00:00 34.6 10 Sur 30 Sudoeste 0 -- -- 18
2017-08-02 15:00:00 34 11 Sudoeste 22 Sur 0 -- -- 17
2017-08-02 14:00:00 32.8 10 Sudoeste 18 Sudoeste 0 -- -- 21
2017-08-02 13:00:00 31 5 Oeste 14 Sur 0 -- -- 27
2017-08-02 12:00:00 28.7 3 Nordeste 14 Este 0 -- -- 32
2017-08-02 11:00:00 25.9 6 Este 10 Este 0 -- -- 35
2017-08-02 10:00:00 22.3 4 Este 9 Este 0 -- -- 46
2017-08-02 09:00:00 18.8 3 Este 5 Este 0 -- -- 56
2017-08-02 08:00:00 16.3 2 Este 6 Nordeste 0 -- -- 62
2017-08-02 07:00:00 16.1 0 Calma 3 Sudoeste 0 -- -- 60
2017-08-02 06:00:00 17.2 3 Este 6 Este 0 -- -- 60
2017-08-02 05:00:00 17.2 2 Este 7 Nordeste 0 -- -- 60
2017-08-02 04:00:00 18.5 4 Nordeste 8 Nordeste 0 -- -- 54
2017-08-02 03:00:00 18.7 4 Nordeste 8 Nordeste 0 -- -- 57
2017-08-02 02:00:00 19.4 6 Nordeste 9 Nordeste 0 -- -- 54
2017-08-02 01:00:00 21.1 3 Este 6 Este 0 -- -- 51
2017-08-02 00:00:00 22.1 0 Calma 9 Oeste 0 -- -- 46
2017-08-01 23:00:00 23.3 4 Oeste 9 Norte 0 -- -- 42
2017-08-01 22:00:00 25 4 Noroeste 9 Noroeste 0 -- -- 38
2017-08-01 21:00:00 29.1 5 Oeste 15 Sudoeste 0 -- -- 33
2017-08-01 20:00:00 31.5 9 Sudoeste 22 Oeste 0 -- -- 26
2017-08-01 19:00:00 32.2 12 Sudoeste 27 Sudoeste 0 -- -- 25
2017-08-01 18:00:00 32.5 14 Sudoeste 24 Sudoeste 0 -- -- 25
2017-08-01 17:00:00 32.5 11 Sudoeste 23 Sudoeste 0 -- -- 27
2017-08-01 16:00:00 31.3 10 Oeste 23 Oeste 0 -- -- 28
2017-08-01 15:00:00 30.3 9 Oeste 21 Oeste 0 -- -- 28
2017-08-01 14:00:00 29 11 Sur 21 Sudoeste 0 -- -- 30
2017-08-01 13:00:00 27.3 5 Sudoeste 14 Sudoeste 0 -- -- 36
2017-08-01 12:00:00 25.2 4 Sudeste 10 Este 0 -- -- 45
2017-08-01 11:00:00 22.3 5 Sudoeste 9 Oeste 0 -- -- 52
2017-08-01 10:00:00 20.7 3 Sudeste 8 Sur 0 -- -- 55
2017-08-01 09:00:00 18.4 2 Este 5 Noroeste 0 -- -- 67
2017-08-01 08:00:00 15.5 3 Nordeste 5 Este 0 -- -- 78
2017-08-01 07:00:00 15.4 2 Este 5 Nordeste 0 -- -- 74
2017-08-01 06:00:00 16.5 3 Nordeste 5 Este 0 -- -- 71
2017-08-01 05:00:00 17.9 0 Calma 5 Este 0 -- -- 60
2017-08-01 04:00:00 18 2 Este 6 Oeste 0 -- -- 62
2017-08-01 03:00:00 20.3 4 Sudoeste 8 Oeste 0 -- -- 50
2017-08-01 02:00:00 21.6 3 Oeste 9 Sur 0 -- -- 47
2017-08-01 01:00:00 22.2 2 Noroeste 15 Sudeste 0 -- -- 49
2017-08-01 00:00:00 22.5 9 Este 17 Sudoeste 0 -- -- 44
2017-07-31 23:00:00 23.1 4 Sudoeste 10 Sudoeste 0 -- -- 44
2017-07-31 22:00:00 25.7 4 Norte 9 Oeste 0 -- -- 37
2017-07-31 21:00:00 28.1 8 Oeste 12 Noroeste 0 -- -- 32
2017-07-31 20:00:00 30.6 8 Oeste 21 Oeste 0 -- -- 24
2017-07-31 19:00:00 32.6 16 Oeste 25 Sudoeste 0 -- -- 20
2017-07-31 18:00:00 31.1 14 Oeste 24 Sudoeste 0 -- -- 17
2017-07-31 17:00:00 33 15 Sudoeste 27 Sur 0 -- -- 18
2017-07-31 16:00:00 33.4 17 Sudoeste 31 Sur 0 -- -- 15
2017-07-31 15:00:00 32.1 14 Sur 25 Sur 0 -- -- 20
2017-07-31 14:00:00 30.6 9 Sur 22 Sudoeste 0 -- -- 27
2017-07-31 13:00:00 28.3 8 Sur 17 Sur 0 -- -- 33
2017-07-31 12:00:00 25.5 5 Sudoeste 22 Sudoeste 0 -- -- 42
2017-07-31 11:00:00 24.1 12 Sudoeste 20 Sudoeste 0 -- -- 44
2017-07-31 10:00:00 21.2 5 Sudoeste 10 Sudoeste 0 -- -- 50
2017-07-31 09:00:00 18.8 4 Nordeste 6 Este 0 -- -- 58
2017-07-31 08:00:00 16.4 4 Nordeste 8 Nordeste 0 -- -- 64
2017-07-31 07:00:00 16.8 3 Nordeste 6 Este 0 -- -- 60
2017-07-31 06:00:00 17.7 3 Este 6 Sudeste 0 -- -- 61
2017-07-31 05:00:00 18.7 0 Calma 9 Oeste 0 -- -- 53
2017-07-31 04:00:00 20.4 0 Calma 9 Sudoeste 0 -- -- 49
2017-07-31 03:00:00 21.1 0 Calma 5 Este 0 -- -- 47
2017-07-31 02:00:00 21.9 3 Este 10 Este 0 -- -- 46
2017-07-31 01:00:00 22.2 6 Este 10 Sudoeste 0 -- -- 45
2017-07-31 00:00:00 24.5 2 Sudeste 15 Oeste 0 -- -- 39
2017-07-30 23:00:00 26.3 8 Oeste 12 Sudoeste 0 -- -- 33
2017-07-30 22:00:00 29.1 6 Noroeste 10 Noroeste 0 -- -- 30
2017-07-30 21:00:00 31.9 7 Noroeste 20 Oeste 0 -- -- 27
2017-07-30 20:00:00 34.6 11 Oeste 26 Sudoeste 0 -- -- 22
2017-07-30 19:00:00 36.2 17 Oeste 34 Oeste 0 -- -- 19
2017-07-30 18:00:00 36.8 17 Sudoeste 30 Oeste 0 -- -- 18
2017-07-30 17:00:00 36.8 19 Sudoeste 36 Sudoeste 0 -- -- 16
2017-07-30 16:00:00 36.4 16 Sur 28 Sur 0 -- -- 17
2017-07-30 15:00:00 35.4 14 Sudoeste 25 Sudoeste 0 -- -- 24
2017-07-30 14:00:00 33.3 14 Sudoeste 23 Sudoeste 0 -- -- 27
2017-07-30 13:00:00 31.7 6 Oeste 14 Sur 0 -- -- 33
2017-07-30 12:00:00 29.6 5 Sudeste 19 Sudeste 0 -- -- 38
2017-07-30 11:00:00 27.1 5 Este 13 Este 0 -- -- 45
2017-07-30 10:00:00 24.5 10 Este 16 Este 0 -- -- 52
2017-07-30 09:00:00 21.4 4 Este 6 Norte 0 -- -- 61
2017-07-30 08:00:00 20 5 Este 9 Nordeste 0 -- -- 60
2017-07-30 07:00:00 18.6 3 Este 6 Norte 0 -- -- 65
2017-07-30 06:00:00 20.2 3 Norte 6 Este 0 -- -- 59
2017-07-30 05:00:00 20.2 5 Este 12 Norte 0 -- -- 64
2017-07-30 04:00:00 20.9 5 Nordeste 9 Norte 0 -- -- 60
2017-07-30 03:00:00 23.1 3 Norte 6 Norte 0 -- -- 51
2017-07-30 02:00:00 23.5 5 Norte 9 Norte 0 -- -- 51
2017-07-30 01:00:00 24.2 4 Este 7 Este 0 -- -- 53
2017-07-30 00:00:00 25.3 5 Este 11 Sudoeste 0 -- -- 48
2017-07-29 23:00:00 27.4 4 Noroeste 10 Noroeste 0 -- -- 42
2017-07-29 22:00:00 30.2 5 Noroeste 12 Oeste 0 -- -- 37
2017-07-29 21:00:00 33.7 7 Oeste 26 Oeste 0 -- -- 30
2017-07-29 20:00:00 36.5 6 Sudoeste 23 Sur 0 -- -- 25
2017-07-29 19:00:00 36.8 15 Sudoeste 28 Sudoeste 0 -- -- 26
2017-07-29 18:00:00 37.4 18 Sudoeste 28 Sudoeste 0 -- -- 24
2017-07-29 17:00:00 37.4 16 Sudoeste 25 Sudoeste 0 -- -- 24
2017-07-29 16:00:00 36.6 13 Sudoeste 23 Sudoeste 0 -- -- 26
2017-07-29 15:00:00 34.6 7 Oeste 19 Sudoeste 0 -- -- 28
2017-07-29 14:00:00 33.7 6 Sudoeste 14 Sudoeste 0 -- -- 27
2017-07-29 13:00:00 30.5 9 Este 14 Sudeste 0 -- -- 31
2017-07-29 12:00:00 28.9 3 Sudoeste 15 Sudeste 0 -- -- 34
2017-07-29 11:00:00 27.5 9 Sudeste 17 Sudeste 0 -- -- 37
2017-07-29 10:00:00 25.5 5 Nordeste 11 Sur 0 -- -- 39
2017-07-29 09:00:00 22.5 0 Calma 5 Este 0 -- -- 47
2017-07-29 08:00:00 18.6 0 Calma 5 Este 0 -- -- 64
2017-07-29 07:00:00 17.9 4 Nordeste 6 Este 0 -- -- 63
2017-07-29 06:00:00 18.6 3 Nordeste 6 Este 0 -- -- 63
2017-07-29 05:00:00 19.9 3 Este 5 Este 0 -- -- 56
2017-07-29 04:00:00 21.7 2 Norte 7 Nordeste 0 -- -- 48
2017-07-29 03:00:00 22 3 Nordeste 8 Este 0 -- -- 47
2017-07-29 02:00:00 23.7 4 Norte 10 Sur 0 -- -- 44
2017-07-29 01:00:00 23.5 5 Nordeste 12 Sudeste 0 -- -- 45
2017-07-29 00:00:00 24.9 3 Este 10 Norte 0 -- -- 45
2017-07-28 23:00:00 26.5 2 Norte 9 Noroeste 0 -- -- 36
2017-07-28 22:00:00 29.4 5 Oeste 10 Oeste 0 -- -- 31
2017-07-28 21:00:00 34.7 11 Sudoeste 23 Sudoeste 0 -- -- 22
2017-07-28 20:00:00 36.6 12 Sudoeste 30 Sudoeste 0 -- -- 17
2017-07-28 19:00:00 37.4 17 Sudoeste 32 Sudoeste 0 -- -- 15
2017-07-28 18:00:00 38.3 17 Sudoeste 32 Sudoeste 0 -- -- 14
2017-07-28 17:00:00 38.3 15 Sudoeste 29 Sudoeste 0 -- -- 17
2017-07-28 16:00:00 37.6 14 Sudoeste 31 Sur 0 -- -- 18
2017-07-28 15:00:00 36 11 Sudoeste 19 Sudoeste 0 -- -- 18
2017-07-28 14:00:00 34.6 9 Sudeste 20 Sudoeste 0 -- -- 25
2017-07-28 13:00:00 32.7 6 Oeste 15 Noroeste 0 -- -- 29
2017-07-28 12:00:00 30.7 6 Sudoeste 15 Sudoeste 0 -- -- 31
2017-07-28 11:00:00 28.6 8 Sudoeste 12 Sudoeste 0 -- -- 37
2017-07-28 10:00:00 25.7 5 Oeste 8 Sudoeste 0 -- -- 43
2017-07-28 09:00:00 22.8 0 Calma 7 Nordeste 0 -- -- 52
2017-07-28 08:00:00 18.6 7 Este 8 Nordeste 0 -- -- 54
2017-07-28 07:00:00 20 0 Calma 2 Noroeste 0 -- -- 46
2017-07-28 06:00:00 19.6 0 Calma 5 Este 0 -- -- 47
2017-07-28 05:00:00 20.2 4 Este 8 Norte 0 -- -- 52
2017-07-28 04:00:00 24.1 3 Noroeste 10 Oeste 0 -- -- 35
2017-07-28 03:00:00 22.3 9 Oeste 12 Oeste 0 -- -- 40
2017-07-28 02:00:00 23.6 4 Nordeste 7 Norte 0 -- -- 40
2017-07-28 01:00:00 24.3 4 Este 9 Sudeste 0 -- -- 41
2017-07-28 00:00:00 29 6 Norte 13 Oeste 0 -- -- 26
2017-07-27 23:00:00 28.1 5 Oeste 12 Oeste 0 -- -- 32
2017-07-27 22:00:00 28.8 4 Noroeste 9 Noroeste 0 -- -- 31
2017-07-27 21:00:00 34.3 9 Oeste 19 Sudoeste 0 -- -- 24
2017-07-27 20:00:00 36.7 13 Sudoeste 27 Sudoeste 0 -- -- 22
2017-07-27 19:00:00 38 14 Sudoeste 29 Sur 0 -- -- 22
2017-07-27 18:00:00 38.2 12 Sudoeste 28 Sudoeste 0 -- -- 21
2017-07-27 17:00:00 38.2 15 Sudoeste 35 Sudoeste 0 -- -- 19
2017-07-27 16:00:00 37.8 17 Sudoeste 33 Sur 0 -- -- 20
2017-07-27 15:00:00 37.2 14 Sudoeste 27 Sudoeste 0 -- -- 21
2017-07-27 14:00:00 36.3 12 Oeste 20 Oeste 0 -- -- 22
2017-07-27 13:00:00 34.9 7 Sudoeste 12 Oeste 0 -- -- 25
2017-07-27 12:00:00 32.8 4 Sudoeste 13 Oeste 0 -- -- 26
2017-07-27 11:00:00 29.6 5 Oeste 12 Sudoeste 0 -- -- 34
2017-07-27 10:00:00 25.9 6 Oeste 9 Oeste 0 -- -- 44
2017-07-27 09:00:00 22.9 3 Sudeste 6 Sudeste 0 -- -- 48
2017-07-27 08:00:00 21 4 Sudeste 10 Sudeste 0 -- -- 57
2017-07-27 07:00:00 21.9 4 Este 13 Norte 0 -- -- 52
2017-07-27 06:00:00 21.2 3 Nordeste 8 Norte 0 -- -- 55
2017-07-27 05:00:00 22.5 4 Norte 9 Norte 0 -- -- 51
2017-07-27 04:00:00 22.7 5 Norte 9 Norte 0 -- -- 50
2017-07-27 03:00:00 22.7 6 Nordeste 9 Nordeste 0 -- -- 51
2017-07-27 02:00:00 23.5 3 Este 8 Nordeste 0 -- -- 49
2017-07-27 01:00:00 24.5 3 Este 5 Este 0 -- -- 49
2017-07-27 00:00:00 26.5 0 Calma 11 Norte 0 -- -- 42
2017-07-26 23:00:00 28.1 5 Noroeste 10 Noroeste 0 -- -- 38
2017-07-26 22:00:00 28.9 6 Norte 15 Norte 0 -- -- 39
2017-07-26 21:00:00 34.4 3 Noroeste 11 Sudoeste 0 -- -- 30
2017-07-26 20:00:00 36.1 7 Sudoeste 22 Sudoeste 0 -- -- 25
2017-07-26 19:00:00 36.1 10 Sur 22 Sudoeste 0 -- -- 25
2017-07-26 18:00:00 36 6 Sur 19 Sudoeste 0 -- -- 24
2017-07-26 17:00:00 35.4 8 Sudoeste 21 Sudoeste 0 -- -- 24
2017-07-26 16:00:00 34.8 12 Sudoeste 20 Oeste 0 -- -- 23
2017-07-26 15:00:00 33.8 11 Sudoeste 24 Sudoeste 0 -- -- 24
2017-07-26 14:00:00 32.5 7 Sudoeste 16 Sur 0 -- -- 26
2017-07-26 13:00:00 30.9 4 Nordeste 12 Este 0 -- -- 27
2017-07-26 12:00:00 28.8 5 Nordeste 13 Este 0 -- -- 31
2017-07-26 11:00:00 27.5 6 Nordeste 13 Sudeste 0 -- -- 34
2017-07-26 10:00:00 25.6 6 Este 12 Este 0 -- -- 35
2017-07-26 09:00:00 23 0 Calma 8 Norte 0 -- -- 48
2017-07-26 08:00:00 19.7 5 Norte 8 Norte 0 -- -- 51
2017-07-26 07:00:00 19.1 4 Noroeste 8 Norte 0 -- -- 50
2017-07-26 06:00:00 20.5 2 Norte 9 Sudeste 0 -- -- 46
2017-07-26 05:00:00 20.5 4 Norte 8 Norte 0 -- -- 46
2017-07-26 04:00:00 21.6 8 Norte 10 Norte 0 -- -- 41
2017-07-26 03:00:00 23.3 8 Noroeste 11 Noroeste 0 -- -- 37
2017-07-26 02:00:00 21.7 5 Sudoeste 9 Sudoeste 0 -- -- 41
2017-07-26 01:00:00 24.1 5 Norte 10 Nordeste 0 -- -- 37
2017-07-26 00:00:00 24.9 3 Norte 10 Sur 0 -- -- 34
2017-07-25 23:00:00 26.6 7 Sur 11 Sudoeste 0 -- -- 33
2017-07-25 22:00:00 28.4 5 Norte 26 Noroeste 0 -- -- 32
2017-07-25 21:00:00 32.8 13 Noroeste 27 Oeste 0 -- -- 21
2017-07-25 20:00:00 34.5 7 Noroeste 24 Oeste 0 -- -- 21
2017-07-25 19:00:00 34.8 9 Sur 20 Sudeste 0 -- -- 20
2017-07-25 18:00:00 34.6 9 Sudoeste 18 Sudoeste 0 -- -- 23
2017-07-25 17:00:00 33.9 5 Noroeste 19 Oeste 0 -- -- 25
2017-07-25 16:00:00 32.9 7 Oeste 18 Sudoeste 0 -- -- 26
2017-07-25 15:00:00 31.3 8 Este 23 Sur 0 -- -- 29
2017-07-25 14:00:00 30.5 7 Sur 22 Sur 0 -- -- 31
2017-07-25 13:00:00 28.9 5 Sudeste 13 Sudoeste 0 -- -- 34
2017-07-25 12:00:00 27.2 6 Oeste 13 Noroeste 0 -- -- 38
2017-07-25 11:00:00 25.7 5 Sudeste 12 Nordeste 0 -- -- 41
2017-07-25 10:00:00 23.9 5 Este 13 Nordeste 0 -- -- 46
2017-07-25 09:00:00 21.7 5 Nordeste 8 Nordeste 0 -- -- 51
2017-07-25 08:00:00 19.4 2 Norte 8 Norte 0 -- -- 54
2017-07-25 07:00:00 19 3 Norte 8 Este 0 -- -- 53
2017-07-25 06:00:00 19 0 Calma 9 Norte 0 -- -- 48
2017-07-25 05:00:00 20.1 2 Norte 7 Nordeste 0 -- -- 46
2017-07-25 04:00:00 20.5 0 Calma 6 Norte 0 -- -- 45
2017-07-25 03:00:00 22.3 7 Norte 13 Oeste 0 -- -- 41
2017-07-25 02:00:00 23.2 9 Noroeste 15 Oeste 0 -- -- 37
2017-07-25 01:00:00 24.4 3 Noroeste 8 Oeste 0 -- -- 38
2017-07-25 00:00:00 26.9 5 Este 16 Sur 0 -- -- 32
2017-07-24 23:00:00 26.1 3 Sudeste 17 Oeste 0 -- -- 33
2017-07-24 22:00:00 29.5 11 Oeste 20 Noroeste 0 -- -- 26
2017-07-24 21:00:00 32.8 19 Oeste 34 Oeste 0 -- -- 20
2017-07-24 20:00:00 34.8 17 Oeste 32 Oeste 0 -- -- 20
2017-07-24 19:00:00 35.8 17 Oeste 30 Oeste 0 -- -- 21
2017-07-24 18:00:00 35.4 10 Sur 22 Sur 0 -- -- 25
2017-07-24 17:00:00 35 7 Sur 26 Sudoeste 0 -- -- 25
2017-07-24 16:00:00 35 8 Sudeste 22 Sur 0 -- -- 26
2017-07-24 15:00:00 33.9 9 Sur 21 Este 0 -- -- 27
2017-07-24 14:00:00 32.7 9 Sudoeste 19 Sur 0 -- -- 27
2017-07-24 13:00:00 31.8 5 Sudeste 16 Este 0 -- -- 31
2017-07-24 12:00:00 30 6 Este 13 Este 0 -- -- 37
2017-07-24 11:00:00 28.3 6 Sudeste 15 Sudeste 0 -- -- 39
2017-07-24 10:00:00 25.5 4 Sur 8 Este 0 -- -- 45
2017-07-24 09:00:00 22.5 4 Este 9 Sudeste 0 -- -- 56
2017-07-24 08:00:00 19.7 4 Nordeste 6 Nordeste 0 -- -- 61
2017-07-24 07:00:00 18.6 3 Nordeste 6 Este 0 -- -- 61
2017-07-24 06:00:00 20.4 0 Calma 9 Oeste 0 -- -- 54
2017-07-24 05:00:00 20.6 5 Este 6 Este 0 -- -- 56
2017-07-24 04:00:00 21.9 3 Norte 8 Noroeste 0 -- -- 49
2017-07-24 03:00:00 23 6 Sudeste 12 Nordeste 0 -- -- 48
2017-07-24 02:00:00 25 4 Oeste 27 Noroeste 0 -- -- 37
2017-07-24 01:00:00 28.7 5 Noroeste 33 Noroeste 0 -- -- 33
2017-07-24 00:00:00 29.5 12 Noroeste 27 Noroeste 0 -- -- 25
2017-07-23 23:00:00 30.9 12 Noroeste 26 Noroeste 0 -- -- 23
2017-07-23 22:00:00 30.1 7 Noroeste 18 Noroeste 0 -- -- 25
2017-07-23 21:00:00 33.1 10 Oeste 23 Sur 0 -- -- 24
2017-07-23 20:00:00 34.3 14 Sudoeste 29 Sudoeste 0 -- -- 24
2017-07-23 19:00:00 34.8 15 Sudoeste 29 Sudoeste 0 -- -- 23
2017-07-23 18:00:00 35.1 17 Sudoeste 29 Sudoeste 0 -- -- 22
2017-07-23 17:00:00 34.8 18 Sudoeste 29 Sudoeste 0 -- -- 21
2017-07-23 16:00:00 34.6 14 Sudoeste 28 Sudoeste 0 -- -- 22
2017-07-23 15:00:00 33.9 16 Sudoeste 32 Sur 0 -- -- 21
2017-07-23 14:00:00 32.7 11 Sudoeste 23 Oeste 0 -- -- 24
2017-07-23 13:00:00 31.6 4 Sudeste 14 Noroeste 0 -- -- 26
2017-07-23 12:00:00 30.1 4 Sur 13 Sudeste 0 -- -- 25
2017-07-23 11:00:00 27.2 5 Nordeste 10 Este 0 -- -- 35
2017-07-23 10:00:00 23.4 2 Nordeste 6 Este 0 -- -- 42
2017-07-23 09:00:00 19.7 3 Este 5 Este 0 -- -- 55
2017-07-23 08:00:00 16.9 2 Nordeste 7 Este 0 -- -- 63
2017-07-23 07:00:00 15.6 4 Este 8 Este 0 -- -- 65
2017-07-23 06:00:00 16.9 0 Calma 7 Nordeste 0 -- -- 58
2017-07-23 05:00:00 17 5 Nordeste 7 Este 0 -- -- 59
2017-07-23 04:00:00 18.7 3 Nordeste 6 Nordeste 0 -- -- 51
2017-07-23 03:00:00 19.1 2 Sudoeste 7 Noroeste 0 -- -- 49
2017-07-23 02:00:00 19.5 3 Este 5 Este 0 -- -- 50
2017-07-23 01:00:00 20.3 3 Norte 7 Nordeste 0 -- -- 45
2017-07-23 00:00:00 21.5 2 Este 7 Norte 0 -- -- 42
2017-07-22 23:00:00 23.5 5 Norte 7 Nordeste 0 -- -- 41
2017-07-22 22:00:00 25.7 6 Norte 11 Norte 0 -- -- 35
2017-07-22 21:00:00 30.2 5 Oeste 22 Oeste 0 -- -- 25
2017-07-22 20:00:00 31.9 12 Sudoeste 25 Sudoeste 0 -- -- 24
2017-07-22 19:00:00 32.5 14 Sudoeste 28 Sur 0 -- -- 22
2017-07-22 18:00:00 33 14 Sudoeste 26 Sudoeste 0 -- -- 23
2017-07-22 17:00:00 32.8 15 Sudoeste 24 Sur 0 -- -- 20
2017-07-22 16:00:00 32.3 12 Sur 26 Sudoeste 0 -- -- 24
2017-07-22 15:00:00 31 13 Sur 22 Sur 0 -- -- 24
2017-07-22 14:00:00 29.9 7 Sudoeste 18 Sudoeste 0 -- -- 29
2017-07-22 13:00:00 28.2 8 Oeste 19 Oeste 0 -- -- 34
2017-07-22 12:00:00 26.9 10 Oeste 17 Sudoeste 0 -- -- 37
2017-07-22 11:00:00 24.8 6 Oeste 12 Sur 0 -- -- 41
2017-07-22 10:00:00 22.7 3 Sudeste 9 Sudeste 0 -- -- 45
2017-07-22 09:00:00 19.5 0 Calma 5 Este 0 -- -- 54
2017-07-22 08:00:00 16.5 3 Este 5 Norte 0 -- -- 66
2017-07-22 07:00:00 16.4 0 Calma 6 Norte 0 -- -- 62
2017-07-22 06:00:00 16.6 3 Nordeste 6 Norte 0 -- -- 61
2017-07-22 05:00:00 17.7 3 Oeste 9 Oeste 0 -- -- 56
2017-07-22 04:00:00 18 3 Norte 5 Norte 0 -- -- 56
2017-07-22 03:00:00 18.4 4 Noroeste 8 Oeste 0 -- -- 56
2017-07-22 02:00:00 18.9 3 Este 12 Nordeste 0 -- -- 59
2017-07-22 01:00:00 20.6 2 Norte 13 Sudeste 0 -- -- 53
2017-07-22 00:00:00 21.3 0 Calma 7 Oeste 0 -- -- 49